Wednesday, January 17, 2018, 2:45 PM GMT
Back to Local

CWIS, Charlevoix CS , Que.

Location: , , Canada Lat: 47.283
Local Time: 2:45 PM GMT (14:45 GMT) Lon: -70.633
Time Zone: GMT Elev: 2358 ft

Show me the last for .
Show Coded

Time T Td Feel RH Dir Speed Gust Alt SLP Vis Weather Sky Remarks
2018-01-17 14:00 9 8 0 95 210° 5 - - 30.25 0 None
2018-01-17 13:00 8 7 -2 94 210° 6 - - 30.27 0 None
2018-01-17 12:00 8 7 0 95 220° 5 - - 30.27 0 None
2018-01-17 11:00 5 3 -3 93 220° 3 - - 30.29 0 None
2018-01-17 10:00 4 2 - 93 220° 2 - - 30.28 0 None
2018-01-17 09:00 3 1 -4 91 210° 3 - - 30.29 0 None
2018-01-17 08:00 4 2 -6 93 220° 5 - - 30.30 0 None
2018-01-17 06:00 3 1 - 92 200° 2 - - 30.30 0 None
2018-01-17 05:00 4 3 -3 93 200° 3 - - 30.31 0 None
2018-01-17 04:00 3 2 -4 92 190° 3 - - 30.32 0 None
2018-01-17 03:00 2 0 -6 92 190° 3 - - 30.34 0 None
2018-01-17 02:00 1 1 -7 99 190° 3 - - 30.35 0 None
2018-01-17 01:00 1 -1 -9 91 180° 5 - - 30.36 0 None
2018-01-17 00:00 2 0 -6 91 180° 3 - - 30.37 0 None
2018-01-16 23:00 1 -1 - 91 210° 1 - - 30.38 0 None
2018-01-16 22:00 2 0 -5 91 200° 3 - - 30.38 0 None
2018-01-16 21:00 4 3 -3 92 190° 3 - - 30.36 0 None
2018-01-16 20:00 5 4 -4 93 210° 5 - - 30.36 0 None
2018-01-16 18:00 5 4 -2 92 210° 3 - - 30.36 0 None
2018-01-16 16:00 2 0 - 91 200° 2 - - 30.42 0 None
2018-01-16 15:00 -1 -3 - 90 60° 1 - - 30.45 0 None

Support USWX by starting your Amazon purchase here.